Time;durP1;ratioP1;P1;durP2;ratioP2;P2;SDS_P1;SDS_P2;PMS_P1;PMS_P2;Temp;Humidity;BMP_temperature;BMP_pressure;BME280_temperature;BME280_humidity;BME280_pressure;Samples;Min_cycle;Max_cycle;Signal;HPM_P1;HPM_P2
2021/04/08 00:00:13;;;;;;;10.65;2.72;;;1.00;94.70;;;;;;5033917;28;20065;-39
2021/04/08 00:02:47;;;;;;;13.43;3.10;;;1.00;94.70;;;;;;5025818;28;20056;-38
2021/04/08 00:05:16;;;;;;;11.38;2.80;;;1.00;94.60;;;;;;5029587;28;20064;-39
2021/04/08 00:07:47;;;;;;;16.23;2.75;;;1.10;94.70;;;;;;5033809;28;20126;-39
2021/04/08 00:10:19;;;;;;;14.82;2.80;;;1.10;94.90;;;;;;5036731;28;20053;-38
2021/04/08 00:12:49;;;;;;;14.77;3.10;;;1.10;94.90;;;;;;5031423;28;20641;-39
2021/04/08 00:15:25;;;;;;;18.73;3.25;;;1.20;95.00;;;;;;5025592;28;20045;-39
2021/04/08 00:17:54;;;;;;;11.00;2.58;;;1.20;94.90;;;;;;5034680;28;20037;-38
2021/04/08 00:20:28;;;;;;;16.38;3.00;;;1.20;94.90;;;;;;5030987;28;20045;-39
2021/04/08 00:22:58;;;;;;;12.95;2.72;;;1.30;95.00;;;;;;5036064;28;20056;-39
2021/04/08 00:25:27;;;;;;;19.73;3.47;;;1.30;94.80;;;;;;5032638;28;20045;-38
2021/04/08 00:27:53;;;;;;;12.32;2.35;;;1.40;94.90;;;;;;5050537;28;20053;-39
2021/04/08 00:30:22;;;;;;;14.13;3.25;;;1.40;94.80;;;;;;5036896;28;20045;-39
2021/04/08 00:32:48;;;;;;;15.88;2.85;;;1.40;94.80;;;;;;5034199;28;20046;-39
2021/04/08 00:35:19;;;;;;;15.27;2.60;;;1.40;94.70;;;;;;5026359;28;20057;-39
2021/04/08 00:37:48;;;;;;;14.57;2.50;;;1.40;94.70;;;;;;5037567;28;20110;-39
2021/04/08 00:40:21;;;;;;;10.45;2.60;;;1.50;94.70;;;;;;5031107;28;20072;-40
2021/04/08 00:42:50;;;;;;;13.77;2.75;;;1.50;94.60;;;;;;5028143;28;20071;-38
2021/04/08 00:45:25;;;;;;;9.32;2.25;;;1.60;94.50;;;;;;5031658;28;20077;-38
2021/04/08 00:47:54;;;;;;;14.82;3.25;;;1.60;94.40;;;;;;5036825;28;20076;-38
2021/04/08 00:50:23;;;;;;;15.02;2.45;;;1.60;94.30;;;;;;5041600;28;20049;-38
2021/04/08 00:53:13;;;;;;;13.25;2.75;;;1.60;94.20;;;;;;5026396;28;20048;-38
2021/04/08 00:55:47;;;;;;;8.80;2.08;;;1.60;94.00;;;;;;5030888;28;20046;-38
2021/04/08 00:58:17;;;;;;;11.65;2.22;;;1.60;93.90;;;;;;5030851;28;20125;-38
2021/04/08 01:00:52;;;;;;;8.85;1.77;;;1.60;93.80;;;;;;5032628;28;20061;-38
2021/04/08 01:03:22;;;;;;;10.00;2.30;;;1.60;93.70;;;;;;5024210;28;20128;-38
2021/04/08 01:05:51;;;;;;;10.23;2.13;;;1.50;93.70;;;;;;5035268;28;20160;-38
2021/04/08 01:08:23;;;;;;;7.85;1.52;;;1.50;93.70;;;;;;5027811;28;20056;-39
2021/04/08 01:10:51;;;;;;;7.78;1.83;;;1.40;93.60;;;;;;5036979;28;20413;-38
2021/04/08 01:13:20;;;;;;;11.15;2.17;;;1.40;93.50;;;;;;5033645;28;20079;-38
2021/04/08 01:15:51;;;;;;;6.00;1.35;;;1.40;93.50;;;;;;5026397;28;20061;-38
2021/04/08 01:18:32;;;;;;;8.98;2.15;;;1.40;93.40;;;;;;5033644;28;20425;-38
2021/04/08 01:21:19;;;;;;;11.15;2.20;;;1.40;93.40;;;;;;5027413;28;20065;-38
2021/04/08 01:24:09;;;;;;;9.63;2.15;;;1.40;93.30;;;;;;5037824;28;20045;-39
2021/04/08 01:27:11;;;;;;;8.23;2.03;;;1.30;93.40;;;;;;5027870;28;20156;-39
2021/04/08 01:29:59;;;;;;;10.15;1.65;;;1.40;93.40;;;;;;5031229;28;20057;-38
2021/04/08 01:32:30;;;;;;;14.43;2.60;;;1.30;93.70;;;;;;5030278;28;20045;-38
2021/04/08 01:35:03;;;;;;;8.90;1.70;;;1.30;93.60;;;;;;5025875;28;20061;-38
2021/04/08 01:37:39;;;;;;;15.90;1.67;;;1.30;93.70;;;;;;5030180;28;20053;-38
2021/04/08 01:40:09;;;;;;;11.10;1.88;;;1.30;93.80;;;;;;5032585;28;20065;-38
2021/04/08 01:42:39;;;;;;;7.03;1.58;;;1.30;93.90;;;;;;5026399;28;20089;-38
2021/04/08 01:45:11;;;;;;;14.30;2.28;;;1.30;93.80;;;;;;5030787;28;20049;-38
2021/04/08 01:47:40;;;;;;;7.60;1.48;;;1.30;93.90;;;;;;5029035;28;20053;-38
2021/04/08 01:50:10;;;;;;;10.70;1.60;;;1.30;93.90;;;;;;5031959;28;20053;-38
2021/04/08 01:52:49;;;;;;;8.00;1.50;;;1.30;93.90;;;;;;5033851;28;20052;-38
2021/04/08 01:55:17;;;;;;;9.00;2.17;;;1.30;94.00;;;;;;5030815;28;20038;-38
2021/04/08 01:57:47;;;;;;;6.95;1.30;;;1.40;94.00;;;;;;5032511;28;20513;-38
2021/04/08 02:00:20;;;;;;;11.15;1.55;;;1.40;93.90;;;;;;5041567;28;20413;-38
2021/04/08 02:02:54;;;;;;;7.78;2.20;;;1.50;93.80;;;;;;5031894;28;20274;-38
2021/04/08 02:05:25;;;;;;;8.70;1.80;;;1.50;93.70;;;;;;5033537;28;20049;-38
2021/04/08 02:07:56;;;;;;;7.70;1.35;;;1.50;93.60;;;;;;5027392;28;20660;-38
2021/04/08 02:10:28;;;;;;;8.02;1.42;;;1.50;93.60;;;;;;5040277;28;20053;-39
2021/04/08 02:12:58;;;;;;;9.70;2.20;;;1.50;93.50;;;;;;5034278;28;20088;-38
2021/04/08 02:15:32;;;;;;;5.72;1.67;;;1.40;93.50;;;;;;5032270;28;20072;-38
2021/04/08 02:18:01;;;;;;;6.50;1.35;;;1.50;93.50;;;;;;5032482;28;20076;-38
2021/04/08 02:20:34;;;;;;;7.97;1.60;;;1.50;93.30;;;;;;5033269;28;20072;-38
2021/04/08 02:23:04;;;;;;;9.13;1.48;;;1.50;93.30;;;;;;5032352;28;20059;-38
2021/04/08 02:25:37;;;;;;;8.43;1.60;;;1.50;93.10;;;;;;5034288;28;20059;-38
2021/04/08 02:28:08;;;;;;;;;;;1.50;93.10;;;;;;5035401;28;20064;-38
2021/04/08 02:30:46;;;;;;;8.10;1.70;;;1.60;93.10;;;;;;5040484;28;19932;-38
2021/04/08 02:33:36;;;;;;;9.25;1.90;;;1.70;92.90;;;;;;5032934;28;20308;-38
2021/04/08 02:36:05;;;;;;;9.50;1.60;;;1.70;92.70;;;;;;5037274;28;20127;-38
2021/04/08 02:38:35;;;;;;;9.38;1.98;;;1.70;93.10;;;;;;5032072;28;20069;-38
2021/04/08 02:41:15;;;;;;;5.80;1.75;;;1.80;92.90;;;;;;5036358;28;20071;-38
2021/04/08 02:43:44;;;;;;;9.93;1.80;;;1.80;92.70;;;;;;5034214;28;20582;-38
2021/04/08 02:46:12;;;;;;;6.30;1.38;;;1.80;92.80;;;;;;5043586;28;20045;-38
2021/04/08 02:48:41;;;;;;;11.32;1.95;;;1.90;92.70;;;;;;5028884;28;20041;-38
2021/04/08 02:51:14;;;;;;;7.60;1.80;;;1.80;92.70;;;;;;5042609;28;20493;-38
2021/04/08 02:53:57;;;;;;;11.18;2.15;;;1.90;92.70;;;;;;5035043;28;20049;-38
2021/04/08 02:56:32;;;;;;;8.50;1.63;;;1.80;92.70;;;;;;5034560;28;20052;-38
2021/04/08 02:59:26;;;;;;;10.18;1.83;;;1.90;92.70;;;;;;5031473;28;20061;-38
2021/04/08 03:02:23;;;;;;;7.60;1.90;;;1.80;93.10;;;;;;5027789;28;20077;-38
2021/04/08 03:04:56;;;;;;;8.43;1.67;;;1.70;92.80;;;;;;5034395;28;20080;-39
2021/04/08 03:07:46;;;;;;;7.88;1.52;;;1.70;92.90;;;;;;5033021;28;20081;-38
2021/04/08 03:10:15;;;;;;;3.97;1.58;;;1.60;93.00;;;;;;5036096;28;20103;-38
2021/04/08 03:12:49;;;;;;;10.90;2.15;;;1.60;93.10;;;;;;5039544;28;20057;-38
2021/04/08 03:15:28;;;;;;;8.23;1.50;;;1.60;93.40;;;;;;5037983;28;20163;-38
2021/04/08 03:17:59;;;;;;;13.23;2.10;;;1.50;93.40;;;;;;5035587;28;20124;-38
2021/04/08 03:20:27;;;;;;;14.75;2.08;;;1.50;93.40;;;;;;5033328;28;20049;-38
2021/04/08 03:23:00;;;;;;;12.35;1.80;;;1.40;93.40;;;;;;5028822;28;20056;-38
2021/04/08 03:25:27;;;;;;;7.85;1.60;;;1.30;93.40;;;;;;5035510;28;20053;-38
2021/04/08 03:27:58;;;;;;;8.82;1.60;;;1.30;93.50;;;;;;5029773;28;20054;-38
2021/04/08 03:30:25;;;;;;;6.80;2.03;;;1.20;93.50;;;;;;5032749;28;20056;-38
2021/04/08 03:32:58;;;;;;;9.07;1.38;;;1.20;93.70;;;;;;5032754;28;20046;-38
2021/04/08 03:35:25;;;;;;;9.00;1.42;;;1.10;93.60;;;;;;5030152;28;20049;-38
2021/04/08 03:37:54;;;;;;;9.02;2.17;;;1.10;93.70;;;;;;5034974;28;20103;-38
2021/04/08 03:40:23;;;;;;;13.18;1.88;;;1.10;93.60;;;;;;5035094;28;20577;-38
2021/04/08 03:42:57;;;;;;;10.00;2.03;;;1.10;93.60;;;;;;5033513;28;20048;-38
2021/04/08 03:45:26;;;;;;;8.45;2.33;;;1.10;93.60;;;;;;5032421;28;20040;-38
2021/04/08 03:48:04;;;;;;;8.77;1.88;;;1.10;93.80;;;;;;5028810;28;20118;-38
2021/04/08 03:50:34;;;;;;;10.13;1.50;;;1.10;93.70;;;;;;5036453;28;20045;-38
2021/04/08 03:53:03;;;;;;;8.45;1.58;;;1.20;93.60;;;;;;5058885;28;20509;-39
2021/04/08 03:55:29;;;;;;;14.30;1.75;;;1.20;93.60;;;;;;5029949;28;20163;-38
2021/04/08 03:58:03;;;;;;;6.47;2.00;;;1.20;93.50;;;;;;5033030;28;20041;-38
2021/04/08 04:00:32;;;;;;;6.50;1.60;;;1.30;93.50;;;;;;5037085;28;20047;-38
2021/04/08 04:03:00;;;;;;;8.93;1.85;;;1.30;93.60;;;;;;5025949;28;20048;-38
2021/04/08 04:05:27;;;;;;;8.80;1.90;;;1.30;93.60;;;;;;5036118;28;20049;-37
2021/04/08 04:07:56;;;;;;;8.43;1.63;;;1.30;93.60;;;;;;5032722;28;20060;-37
2021/04/08 04:10:26;;;;;;;11.75;2.00;;;1.30;93.70;;;;;;5031638;28;20112;-38
2021/04/08 04:12:56;;;;;;;9.77;1.90;;;1.40;93.60;;;;;;5039689;28;20055;-38
2021/04/08 04:15:28;;;;;;;12.68;2.13;;;1.40;93.80;;;;;;5035191;28;20067;-38
2021/04/08 04:17:56;;;;;;;6.53;1.50;;;1.40;94.10;;;;;;5027995;28;20049;-38
2021/04/08 04:20:27;;;;;;;11.25;2.20;;;1.40;94.10;;;;;;5030140;28;20100;-38
2021/04/08 04:22:57;;;;;;;8.93;2.05;;;1.40;94.00;;;;;;5026602;28;20049;-38
2021/04/08 04:25:26;;;;;;;9.15;1.85;;;1.40;94.00;;;;;;5030060;28;20045;-38
2021/04/08 04:27:58;;;;;;;11.57;1.92;;;1.40;94.00;;;;;;5023147;28;20119;-38
2021/04/08 04:30:30;;;;;;;9.70;2.40;;;1.50;94.10;;;;;;5036056;28;20155;-38
2021/04/08 04:33:00;;;;;;;9.38;2.10;;;1.50;94.00;;;;;;5038575;28;20126;-38
2021/04/08 04:35:32;;;;;;;7.68;2.17;;;1.50;94.10;;;;;;5033120;28;20119;-38
2021/04/08 04:37:58;;;;;;;8.13;1.92;;;1.50;94.00;;;;;;5033532;28;20053;-38
2021/04/08 04:40:29;;;;;;;6.68;1.98;;;1.50;94.00;;;;;;5039880;28;20144;-38
2021/04/08 04:42:58;;;;;;;8.18;2.22;;;1.50;94.10;;;;;;5038025;28;20136;-38
2021/04/08 04:45:28;;;;;;;12.10;2.08;;;1.50;94.00;;;;;;5030349;28;20056;-38
2021/04/08 04:47:57;;;;;;;12.23;2.20;;;1.50;94.10;;;;;;5036573;28;20052;-39
2021/04/08 04:50:27;;;;;;;15.30;2.72;;;1.50;94.10;;;;;;5027360;28;20131;-36
2021/04/08 04:53:01;;;;;;;11.27;2.28;;;1.50;94.10;;;;;;5035036;28;20502;-37
2021/04/08 04:55:31;;;;;;;8.18;2.72;;;1.50;94.00;;;;;;5029575;28;20084;-37
2021/04/08 04:58:01;;;;;;;13.88;2.92;;;1.60;94.10;;;;;;5036606;28;20061;-38
2021/04/08 05:00:27;;;;;;;11.35;2.15;;;1.50;94.20;;;;;;5030930;28;20041;-40
2021/04/08 05:02:53;;;;;;;9.23;1.90;;;1.60;94.10;;;;;;5038092;28;20654;-37
2021/04/08 05:05:23;;;;;;;9.73;2.05;;;1.60;94.10;;;;;;5037641;28;20065;-37
2021/04/08 05:07:51;;;;;;;11.57;2.47;;;1.60;94.00;;;;;;5032569;28;20682;-38
2021/04/08 05:10:21;;;;;;;9.18;2.63;;;1.60;94.10;;;;;;5029287;28;20144;-38
2021/04/08 05:12:47;;;;;;;10.13;2.40;;;1.70;94.00;;;;;;5038300;28;20061;-38
2021/04/08 05:15:16;;;;;;;10.60;3.08;;;1.70;94.00;;;;;;5031749;28;20457;-37
2021/04/08 05:17:44;;;;;;;9.90;2.35;;;1.70;93.90;;;;;;5035351;28;20045;-38
2021/04/08 05:20:17;;;;;;;10.98;1.92;;;1.70;93.90;;;;;;5035458;28;20099;-39
2021/04/08 05:22:48;;;;;;;;;;;1.70;93.80;;;;;;5033288;28;20056;-39
2021/04/08 05:25:17;;;;;;;13.32;2.60;;;1.80;93.80;;;;;;5034895;28;19929;-39
2021/04/08 05:27:46;;;;;;;14.63;2.83;;;1.80;93.80;;;;;;5027235;28;20041;-38
2021/04/08 05:30:15;;;;;;;9.65;1.73;;;1.80;93.70;;;;;;5040763;28;20147;-38
2021/04/08 05:32:43;;;;;;;9.27;1.95;;;1.90;93.70;;;;;;5050131;28;20042;-38
2021/04/08 05:35:15;;;;;;;8.45;2.40;;;1.90;93.60;;;;;;5046855;28;20044;-38
2021/04/08 05:37:45;;;;;;;8.35;2.35;;;1.90;93.50;;;;;;5031104;28;20108;-38
2021/04/08 05:40:14;;;;;;;5.68;1.67;;;1.90;93.50;;;;;;5033099;28;20057;-38
2021/04/08 05:42:44;;;;;;;14.20;1.80;;;2.00;93.50;;;;;;5035922;28;20080;-38
2021/04/08 05:45:14;;;;;;;4.25;1.40;;;2.10;93.40;;;;;;5027418;28;20552;-39
2021/04/08 05:47:40;;;;;;;8.85;2.00;;;2.10;93.20;;;;;;5036513;28;20052;-39
2021/04/08 05:50:09;;;;;;;7.07;1.85;;;2.20;93.00;;;;;;5029827;28;20196;-39
2021/04/08 05:52:41;;;;;;;5.10;1.50;;;2.30;92.50;;;;;;5029771;28;20525;-38
2021/04/08 05:55:10;;;;;;;105.43;76.95;;;2.40;92.10;;;;;;5035325;28;20499;-39
2021/04/08 05:57:41;;;;;;;39.35;21.25;;;2.50;92.30;;;;;;5029609;28;20517;-39
2021/04/08 06:00:10;;;;;;;31.83;19.80;;;2.50;91.90;;;;;;5030172;28;20045;-39
2021/04/08 06:02:39;;;;;;;22.60;11.43;;;2.60;91.60;;;;;;5029895;28;20343;-39
2021/04/08 06:05:07;;;;;;;15.48;8.25;;;2.70;91.40;;;;;;5029701;28;20055;-39
2021/04/08 06:07:36;;;;;;;10.52;2.50;;;2.80;91.00;;;;;;5029409;28;20057;-39
2021/04/08 06:10:06;;;;;;;7.07;3.00;;;2.80;90.60;;;;;;5029089;28;20535;-39
2021/04/08 06:12:32;;;;;;;11.75;5.30;;;2.80;90.90;;;;;;5029363;28;20663;-38
2021/04/08 06:14:59;;;;;;;9.35;3.97;;;2.90;91.30;;;;;;5029490;28;20054;-38
2021/04/08 06:17:29;;;;;;;23.40;11.07;;;2.80;91.60;;;;;;5030638;28;20057;-39
2021/04/08 06:19:56;;;;;;;22.00;11.30;;;2.90;91.90;;;;;;5030482;28;21023;-38
2021/04/08 06:22:28;;;;;;;10.65;4.43;;;2.80;91.90;;;;;;5033190;28;20061;-38
2021/04/08 06:24:59;;;;;;;24.88;13.07;;;2.90;92.10;;;;;;5029920;28;20046;-38
2021/04/08 06:27:30;;;;;;;22.35;7.95;;;2.80;92.30;;;;;;5028524;28;20046;-38
2021/04/08 06:29:59;;;;;;;12.75;5.18;;;2.80;92.30;;;;;;5022188;28;20050;-38
2021/04/08 06:32:26;;;;;;;6.38;1.90;;;2.90;92.30;;;;;;5028477;28;20180;-39
2021/04/08 06:34:52;;;;;;;7.68;2.83;;;2.80;92.40;;;;;;5030014;28;20128;-38
2021/04/08 06:37:24;;;;;;;7.35;2.10;;;2.90;92.50;;;;;;5029436;28;20110;-38
2021/04/08 06:39:54;;;;;;;66.05;45.88;;;2.90;92.30;;;;;;5027799;28;20062;-38
2021/04/08 06:42:23;;;;;;;62.58;41.58;;;3.10;92.70;;;;;;5026535;28;20104;-38
2021/04/08 06:44:56;;;;;;;13.00;7.20;;;3.10;92.10;;;;;;5027527;28;20096;-38
2021/04/08 06:47:49;;;;;;;14.73;6.60;;;3.10;92.10;;;;;;5029428;28;20049;-38
2021/04/08 06:50:22;;;;;;;11.65;5.32;;;3.20;92.10;;;;;;5032116;28;20049;-37
2021/04/08 06:52:51;;;;;;;10.07;2.50;;;3.40;91.90;;;;;;5027386;28;20159;-38
2021/04/08 06:55:25;;;;;;;8.20;2.63;;;3.50;91.60;;;;;;5026600;28;20049;-38
2021/04/08 06:57:57;;;;;;;5.93;1.80;;;3.50;91.50;;;;;;5027440;28;20052;-37
2021/04/08 07:00:29;;;;;;;7.38;2.25;;;3.60;91.70;;;;;;5025240;28;20060;-37
2021/04/08 07:03:06;;;;;;;9.68;1.70;;;3.60;91.70;;;;;;5027120;28;20627;-40
2021/04/08 07:05:32;;;;;;;6.70;1.58;;;3.60;91.60;;;;;;5031231;28;20073;-40
2021/04/08 07:08:02;;;;;;;5.25;1.63;;;3.50;91.50;;;;;;5026548;28;20107;-39
2021/04/08 07:10:39;;;;;;;8.25;1.67;;;3.50;91.40;;;;;;5024608;28;20077;-40
2021/04/08 07:13:09;;;;;;;9.35;1.75;;;3.50;91.20;;;;;;5026307;28;20147;-42
2021/04/08 07:15:38;;;;;;;8.85;2.75;;;3.50;91.30;;;;;;5046086;28;20084;-41
2021/04/08 07:18:06;;;;;;;7.40;2.25;;;3.60;91.40;;;;;;5038071;28;20052;-40
2021/04/08 07:20:40;;;;;;;7.07;1.80;;;4.10;91.70;;;;;;5023433;28;20136;-39
2021/04/08 07:23:13;;;;;;;8.70;2.90;;;4.50;90.70;;;;;;5026015;28;20111;-40
2021/04/08 07:26:00;;;;;;;8.60;2.45;;;4.60;89.60;;;;;;5024892;28;20045;-40
2021/04/08 07:28:36;;;;;;;8.27;1.80;;;4.70;90.00;;;;;;5024639;28;20834;-39
2021/04/08 07:31:28;;;;;;;5.28;2.08;;;4.90;89.30;;;;;;5024006;28;20107;-41
2021/04/08 07:34:04;;;;;;;4.95;2.30;;;4.70;88.40;;;;;;5023701;28;20056;-41
2021/04/08 07:36:37;;;;;;;4.93;2.00;;;4.70;90.00;;;;;;5005783;28;20607;-41
2021/04/08 07:39:23;;;;;;;5.75;2.10;;;4.60;89.80;;;;;;5014822;28;20053;-40
2021/04/08 07:42:12;;;;;;;7.93;2.28;;;4.50;89.40;;;;;;5024603;28;20160;-39
2021/04/08 07:44:48;;;;;;;6.60;2.10;;;4.60;90.00;;;;;;5009831;28;20057;-40
2021/04/08 07:47:40;;;;;;;7.00;2.20;;;4.60;89.40;;;;;;5024140;28;20077;-39
2021/04/08 07:50:15;;;;;;;7.18;2.33;;;4.70;90.00;;;;;;5017265;28;20057;-41
2021/04/08 07:52:49;;;;;;;12.88;2.40;;;4.70;89.50;;;;;;5023053;28;20053;-40
2021/04/08 07:55:36;;;;;;;9.27;2.40;;;4.70;89.70;;;;;;5023906;28;20148;-40
2021/04/08 07:58:12;;;;;;;11.27;2.17;;;4.70;89.20;;;;;;5029564;28;20045;-39
2021/04/08 08:00:38;;;;;;;9.45;2.25;;;4.70;90.00;;;;;;5030419;28;20049;-40
2021/04/08 08:03:19;;;;;;;6.70;2.30;;;4.70;89.70;;;;;;5024108;28;20053;-40
2021/04/08 08:05:48;;;;;;;7.47;2.35;;;4.60;89.20;;;;;;5024478;28;20053;-38
2021/04/08 08:08:21;;;;;;;8.27;1.90;;;4.60;90.00;;;;;;5024392;28;20114;-40
2021/04/08 08:10:59;;;;;;;;;;;4.70;89.50;;;;;;5024865;28;20056;-40
2021/04/08 08:13:36;;;;;;;12.27;2.55;;;4.60;88.00;;;;;;5023444;28;19931;-40
2021/04/08 08:16:16;;;;;;;6.93;2.35;;;4.60;87.20;;;;;;5018561;28;20494;-39
2021/04/08 08:18:50;;;;;;;7.97;3.60;;;4.60;86.60;;;;;;5024934;28;20178;-48
2021/04/08 08:21:37;;;;;;;19.33;8.80;;;4.70;87.00;;;;;;5024871;28;20058;-38
2021/04/08 08:24:09;;;;;;;12.77;6.40;;;4.70;87.10;;;;;;5024948;28;20505;-37
2021/04/08 08:26:45;;;;;;;9.18;3.58;;;4.90;86.50;;;;;;5056189;28;20053;-37
2021/04/08 08:29:16;;;;;;;11.25;3.42;;;5.00;86.70;;;;;;5024539;28;20053;-39
2021/04/08 08:31:59;;;;;;;20.55;13.45;;;5.20;87.00;;;;;;5024199;28;20057;-36
2021/04/08 08:34:33;;;;;;;18.70;5.28;;;5.60;85.20;;;;;;5024552;28;20057;-36
2021/04/08 08:37:09;;;;;;;11.10;2.95;;;5.70;83.60;;;;;;5025380;28;20049;-36
2021/04/08 08:39:47;;;;;;;12.75;4.35;;;5.80;84.50;;;;;;5025513;28;20148;-36
2021/04/08 08:42:22;;;;;;;11.40;3.35;;;5.80;83.90;;;;;;5024860;28;20433;-36
2021/04/08 08:44:48;;;;;;;10.63;3.25;;;5.90;83.70;;;;;;5024638;28;20049;-36
2021/04/08 08:47:40;;;;;;;7.35;2.78;;;5.90;83.50;;;;;;5024997;28;20707;-37
2021/04/08 08:50:09;;;;;;;8.30;2.88;;;6.00;83.10;;;;;;5011547;28;20064;-36
2021/04/08 08:52:39;;;;;;;;;;;6.20;84.50;;;;;;5024554;28;20096;-37
2021/04/08 08:55:13;;;;;;;10.98;2.83;;;6.20;81.80;;;;;;5024986;28;19925;-38
2021/04/08 08:57:46;;;;;;;8.68;2.90;;;6.40;81.40;;;;;;5023313;28;20116;-37
2021/04/08 09:00:14;;;;;;;12.60;2.90;;;6.50;80.80;;;;;;5020339;28;20045;-36
2021/04/08 09:02:41;;;;;;;9.40;2.65;;;6.70;81.10;;;;;;5022254;28;20053;-36
2021/04/08 09:05:14;;;;;;;10.00;2.78;;;6.70;80.60;;;;;;5032310;28;20787;-36
2021/04/08 09:07:42;;;;;;;7.63;2.40;;;6.60;78.10;;;;;;5028527;28;20056;-36
2021/04/08 09:10:10;;;;;;;5.53;2.45;;;6.50;79.40;;;;;;5034670;28;20042;-36
2021/04/08 09:12:36;;;;;;;7.03;2.42;;;6.60;79.10;;;;;;5027657;28;20102;-36
2021/04/08 09:15:06;;;;;;;7.65;2.20;;;6.70;78.50;;;;;;5028562;28;20058;-36
2021/04/08 09:17:48;;;;;;;7.43;2.55;;;6.80;77.50;;;;;;5027901;28;20116;-36
2021/04/08 09:20:21;;;;;;;8.73;2.55;;;6.90;76.60;;;;;;5027657;28;20052;-36
2021/04/08 09:23:03;;;;;;;14.13;3.10;;;7.10;76.80;;;;;;5029106;28;20095;-36
2021/04/08 09:25:35;;;;;;;7.63;2.53;;;7.00;75.00;;;;;;5024452;28;20086;-38
2021/04/08 09:28:03;;;;;;;;;;;6.90;73.40;;;;;;5028275;28;20045;-36
2021/04/08 09:30:41;;;;;;;6.13;1.95;;;6.90;74.10;;;;;;5026849;28;19932;-36
2021/04/08 09:33:13;;;;;;;6.85;2.70;;;6.70;72.20;;;;;;5027014;28;20399;-37
2021/04/08 09:35:43;;;;;;;;;;;6.60;72.90;;;;;;5028019;28;20054;-36
2021/04/08 09:38:14;;;;;;;7.53;2.72;;;6.50;72.70;;;;;;5028194;28;19964;-36
2021/04/08 09:40:46;;;;;;;6.85;3.20;;;6.40;71.30;;;;;;5046846;28;20063;-36
2021/04/08 09:43:26;;;;;;;6.57;2.63;;;6.40;73.50;;;;;;5032790;28;20103;-36
2021/04/08 09:45:59;;;;;;;9.45;3.30;;;6.40;74.00;;;;;;5029188;28;20052;-36
2021/04/08 09:48:27;;;;;;;7.28;3.08;;;6.50;74.40;;;;;;5026748;28;20821;-36
2021/04/08 09:51:01;;;;;;;5.35;2.13;;;6.50;75.50;;;;;;5026931;28;20140;-36
2021/04/08 09:53:29;;;;;;;8.35;2.58;;;6.50;71.80;;;;;;5026062;28;20136;-37
2021/04/08 09:56:01;;;;;;;10.93;3.30;;;6.60;74.10;;;;;;5028443;28;20046;-37
2021/04/08 09:58:30;;;;;;;9.13;2.72;;;6.70;72.70;;;;;;5027934;28;20049;-37
2021/04/08 10:00:59;;;;;;;7.13;2.80;;;6.80;71.80;;;;;;5028121;28;20060;-37
2021/04/08 10:03:45;;;;;;;13.95;7.82;;;6.70;68.60;;;;;;5026628;28;20079;-36
2021/04/08 10:06:21;;;;;;;8.63;3.33;;;7.10;69.80;;;;;;5025022;28;20060;-36
2021/04/08 10:08:53;;;;;;;7.10;3.65;;;7.30;69.00;;;;;;5027942;28;20045;-36
2021/04/08 10:11:31;;;;;;;9.18;3.50;;;7.50;67.40;;;;;;5028477;28;20884;-36
2021/04/08 10:14:13;;;;;;;8.30;3.90;;;8.00;66.70;;;;;;5027375;28;20395;-36
2021/04/08 10:17:23;;;;;;;8.82;3.40;;;8.30;66.80;;;;;;5028024;28;20057;-36
2021/04/08 10:20:14;;;;;;;9.80;3.15;;;8.50;63.40;;;;;;4993392;28;20054;-35
2021/04/08 10:22:45;;;;;;;20.30;13.93;;;8.60;63.90;;;;;;5027154;28;20736;-38
2021/04/08 10:25:18;;;;;;;5.85;3.00;;;8.80;59.10;;;;;;5026987;28;20303;-39
2021/04/08 10:28:12;;;;;;;8.82;3.33;;;8.60;57.90;;;;;;5025613;28;20517;-39
2021/04/08 10:31:33;;;;;;;5.07;2.47;;;9.10;61.40;;;;;;5039407;28;20053;-39
2021/04/08 10:34:08;;;;;;;5.72;2.47;;;9.40;59.50;;;;;;5026693;28;20049;-40
2021/04/08 10:36:40;;;;;;;4.90;2.47;;;9.30;57.70;;;;;;5039624;28;20507;-39
2021/04/08 10:39:19;;;;;;;7.18;3.05;;;9.00;55.20;;;;;;5026819;28;20156;-39
2021/04/08 10:41:57;;;;;;;9.57;3.28;;;8.80;58.00;;;;;;5027249;28;20635;-40
2021/04/08 10:44:30;;;;;;;6.45;3.70;;;8.70;60.70;;;;;;5006265;28;20054;-40
2021/04/08 10:47:11;;;;;;;7.70;3.97;;;8.30;53.60;;;;;;5007451;28;20264;-40
2021/04/08 10:49:49;;;;;;;7.53;3.53;;;8.20;51.70;;;;;;5025960;28;20058;-40
2021/04/08 10:52:22;;;;;;;5.38;2.90;;;8.40;49.60;;;;;;5026098;28;20053;-40
2021/04/08 10:54:55;;;;;;;5.22;3.33;;;8.40;49.30;;;;;;5028741;28;20096;-40
2021/04/08 10:57:22;;;;;;;5.72;3.42;;;8.90;49.20;;;;;;5030026;28;20539;-40
2021/04/08 10:59:49;;;;;;;5.53;3.28;;;9.00;51.30;;;;;;5025946;28;20060;-40
2021/04/08 11:02:21;;;;;;;4.32;3.35;;;9.00;52.10;;;;;;5026228;28;20041;-40
2021/04/08 11:04:52;;;;;;;6.22;3.58;;;8.80;50.50;;;;;;5025278;28;20088;-40
2021/04/08 11:07:23;;;;;;;7.03;3.58;;;8.80;50.30;;;;;;5025927;28;20417;-40
2021/04/08 11:09:55;;;;;;;5.65;4.05;;;9.60;50.50;;;;;;5032206;28;20038;-40
2021/04/08 11:12:27;;;;;;;7.82;4.78;;;10.30;50.30;;;;;;5026338;28;20050;-40
2021/04/08 11:14:57;;;;;;;5.22;4.35;;;10.20;48.10;;;;;;5025769;28;20053;-41
2021/04/08 11:17:27;;;;;;;5.53;3.97;;;9.70;46.20;;;;;;5025921;28;20525;-41
2021/04/08 11:19:54;;;;;;;7.53;4.22;;;9.30;48.50;;;;;;5025446;28;20049;-40
2021/04/08 11:22:28;;;;;;;5.90;3.97;;;9.20;50.20;;;;;;5026326;28;20156;-40
2021/04/08 11:24:55;;;;;;;5.53;3.88;;;8.90;49.20;;;;;;5025813;28;20104;-41
2021/04/08 11:27:34;;;;;;;8.43;5.22;;;8.60;50.50;;;;;;5025298;28;20778;-41
2021/04/08 11:30:04;;;;;;;8.18;4.53;;;8.40;51.50;;;;;;5027154;28;20049;-41
2021/04/08 11:32:30;;;;;;;8.88;5.00;;;8.20;51.20;;;;;;5025900;28;20050;-41
2021/04/08 11:34:58;;;;;;;6.57;4.47;;;8.20;51.60;;;;;;5025034;28;20783;-41
2021/04/08 11:37:38;;;;;;;8.50;5.35;;;8.00;51.60;;;;;;5035494;28;20760;-41
2021/04/08 11:40:09;;;;;;;6.07;5.28;;;8.00;51.80;;;;;;5039064;28;20147;-41
2021/04/08 11:42:39;;;;;;;10.93;5.55;;;8.10;54.10;;;;;;5025900;28;20138;-40
2021/04/08 11:45:25;;;;;;;27.20;18.75;;;8.20;54.30;;;;;;5026741;28;20056;-42
2021/04/08 11:47:59;;;;;;;8.38;5.82;;;8.20;53.40;;;;;;5015518;28;20080;-39
2021/04/08 11:50:36;;;;;;;13.20;9.82;;;8.30;53.00;;;;;;5025396;28;20046;-40
2021/04/08 11:53:15;;;;;;;10.48;7.70;;;8.30;52.80;;;;;;5023764;28;20140;-39
2021/04/08 11:55:53;;;;;;;7.95;5.93;;;8.40;54.50;;;;;;5023099;28;20045;-40
2021/04/08 11:58:31;;;;;;;19.27;13.48;;;8.50;53.90;;;;;;5032867;28;20041;-40
2021/04/08 12:01:11;;;;;;;13.43;9.48;;;8.90;52.80;;;;;;5027441;28;20053;-39
2021/04/08 12:03:45;;;;;;;10.38;6.65;;;9.00;52.60;;;;;;5029938;28;20550;-40
2021/04/08 12:06:16;;;;;;;9.32;7.25;;;9.00;53.90;;;;;;5028909;28;20576;-42
2021/04/08 12:08:57;;;;;;;12.15;8.27;;;8.70;53.50;;;;;;5031657;28;20107;-39
2021/04/08 12:11:25;;;;;;;11.45;8.95;;;8.60;52.50;;;;;;5032359;28;20044;-39
2021/04/08 12:14:02;;;;;;;20.67;13.45;;;8.70;54.50;;;;;;5028919;28;20080;-39
2021/04/08 12:16:34;;;;;;;12.43;10.48;;;8.80;54.80;;;;;;5032364;28;20049;-39
2021/04/08 12:19:20;;;;;;;9.60;7.53;;;8.90;52.70;;;;;;5034732;28;20052;-41
2021/04/08 12:22:15;;;;;;;8.00;7.05;;;8.90;53.90;;;;;;5030107;28;20095;-39
2021/04/08 12:25:11;;;;;;;12.85;8.45;;;8.90;54.00;;;;;;5028221;28;20056;-40
2021/04/08 12:27:42;;;;;;;10.98;8.02;;;8.70;51.80;;;;;;5032436;28;20076;-41
2021/04/08 12:30:17;;;;;;;22.10;14.93;;;8.60;53.50;;;;;;5034291;28;20041;-40
2021/04/08 12:32:53;;;;;;;16.75;11.10;;;8.70;54.00;;;;;;5034611;28;20049;-38
2021/04/08 12:35:23;;;;;;;14.57;11.20;;;8.90;52.40;;;;;;5033663;28;20088;-42
2021/04/08 12:37:50;;;;;;;13.02;8.65;;;9.00;54.50;;;;;;5030617;28;20127;-39
2021/04/08 12:40:21;;;;;;;10.95;7.78;;;8.70;52.90;;;;;;5032409;28;20144;-40
2021/04/08 12:42:50;;;;;;;12.60;8.43;;;8.50;53.50;;;;;;5026776;28;20791;-40
2021/04/08 12:45:22;;;;;;;;;;;8.40;55.20;;;;;;5028976;28;20354;-40
2021/04/08 12:47:52;;;;;;;11.20;7.82;;;8.70;55.60;;;;;;5033496;28;19932;-39
2021/04/08 12:50:21;;;;;;;12.02;7.78;;;9.70;54.30;;;;;;5030896;28;20053;-38
2021/04/08 12:52:50;;;;;;;13.57;8.55;;;9.90;51.00;;;;;;5028455;28;20094;-38
2021/04/08 12:55:23;;;;;;;8.75;7.32;;;10.10;52.80;;;;;;5030349;28;20056;-38
2021/04/08 12:57:55;;;;;;;12.48;8.07;;;9.70;51.60;;;;;;5033510;28;20045;-38
2021/04/08 13:00:24;;;;;;;12.02;8.27;;;9.50;52.60;;;;;;5028888;28;20147;-38
2021/04/08 13:02:53;;;;;;;11.52;8.18;;;9.30;52.90;;;;;;5026541;28;20049;-38
2021/04/08 13:05:21;;;;;;;9.65;8.65;;;9.00;53.20;;;;;;5028461;28;20049;-38
2021/04/08 13:07:51;;;;;;;9.68;8.15;;;9.70;52.90;;;;;;5025745;28;20050;-38
2021/04/08 13:10:30;;;;;;;61.55;49.78;;;10.20;50.20;;;;;;5028445;28;20136;-38
2021/04/08 13:12:59;;;;;;;14.98;11.52;;;10.10;52.30;;;;;;5025252;28;20516;-41
2021/04/08 13:15:28;;;;;;;11.60;8.85;;;9.70;51.40;;;;;;5025513;28;20054;-39
2021/04/08 13:17:59;;;;;;;11.43;9.63;;;9.50;52.80;;;;;;5027670;28;20804;-38
2021/04/08 13:20:32;;;;;;;11.82;9.40;;;9.60;53.20;;;;;;5025032;28;20229;-39
2021/04/08 13:22:58;;;;;;;12.65;9.65;;;9.70;53.30;;;;;;5025555;28;20057;-38